Alberta Amoretti — ITNR — position and weather

sailwx.info

Track history (hours):
 
Tides and Currents Weather Stations Pressure Air Temp Water Temp Dewpoint Dewpoint Depression Visibility Wind Speed Wind Dir Waves Ship Positions

Alberta Amoretti

Last reported at 2018-Jun-17 17:43 UTC. Time now 2018-Jun-19 20:15 UTC.
Position N 42°48' E 008°38'.

Length 176 m; draft 8 m.

Type: Ship (hazmat cat A). MMSI: 247593000.

Date/timePositionNaut miles runAvg speedWind from/ knotsBaromVisibWave heightAir tempDewpointWater temp
2018-Jun-17 17:43N 42°48' E 008°38'210.1
2018-Jun-17 17:30N 42°50' E 008°40'510.1
2018-Jun-17 17:00N 42°53' E 008°45'510.2
2018-Jun-17 16:29N 42°57' E 008°50'7 9.9
2018-Jun-17 15:45N 43°02' E 008°58'3 9.4
2018-Jun-17 15:23N 43°04' E 009°01'4 9.5
2018-Jun-17 15:00N 43°06' E 009°05'6 9.5
2018-Jun-17 14:24N 43°10' E 009°11'4 9.7
2018-Jun-17 14:00N 43°12' E 009°15'5 9.8
2018-Jun-17 13:30N 43°14' E 009°21'510.0
2018-Jun-17 13:00N 43°15' E 009°28'510.0
2018-Jun-17 12:30N 43°16' E 009°35'510.1
2018-Jun-17 12:00N 43°16' E 009°42'510.1
2018-Jun-17 11:30N 43°17' E 009°49'5 9.8
2018-Jun-17 10:59N 43°18' E 009°55'4 9.4
2018-Jun-17 10:30N 43°20' E 010°01'510.1
2018-Jun-17 10:00N 43°24' E 010°05'510.3
2018-Jun-17 09:30N 43°28' E 010°10'4 7.4
2018-Jun-17 09:00N 43°31' E 010°13'4 7.6
2018-Jun-17 08:30N 43°33' E 010°18'1 1.0
2018-Jun-17 08:00N 43°34' E 010°18'0 0.0
2018-Jun-17 07:30N 43°34' E 010°18'0 0.0
2018-Jun-17 07:00N 43°34' E 010°18'0 0.0
2018-Jun-17 06:30N 43°34' E 010°18'0 0.0
2018-Jun-17 06:00N 43°34' E 010°18'0 0.0
2018-Jun-17 05:30N 43°34' E 010°18'0 0.0
2018-Jun-17 05:00N 43°34' E 010°18'0 0.0
2018-Jun-17 04:30N 43°34' E 010°18'0 0.0
2018-Jun-17 04:00N 43°34' E 010°18'0 0.0
2018-Jun-17 03:27N 43°34' E 010°18'0 0.0
2018-Jun-17 03:00N 43°34' E 010°18'0 0.0
2018-Jun-17 02:30N 43°34' E 010°18'0 0.0
2018-Jun-17 02:00N 43°34' E 010°18'0 0.0
2018-Jun-17 01:30N 43°34' E 010°18'0 0.0
2018-Jun-17 01:00N 43°34' E 010°18'0 0.0
2018-Jun-17 00:27N 43°34' E 010°18'0 0.0
2018-Jun-16 23:59N 43°34' E 010°18'0 0.0
2018-Jun-16 23:29N 43°34' E 010°18'0 0.0
2018-Jun-16 22:59N 43°34' E 010°18'0 0.0
2018-Jun-16 22:29N 43°34' E 010°18'0 0.0
2018-Jun-16 21:59N 43°34' E 010°18'0 0.0
2018-Jun-16 21:29N 43°34' E 010°18'0 0.0
2018-Jun-16 20:59N 43°34' E 010°18'0 0.0
2018-Jun-16 20:29N 43°34' E 010°18'0 0.0
2018-Jun-16 19:59N 43°34' E 010°18'0 0.0
2018-Jun-16 19:29N 43°34' E 010°18'0 0.0
2018-Jun-16 18:59N 43°34' E 010°18'0 0.0
2018-Jun-16 18:26N 43°34' E 010°18'0 0.0
2018-Jun-16 17:59N 43°34' E 010°18'0 0.0
2018-Jun-16 17:29N 43°34' E 010°18'0 0.0
2018-Jun-16 16:59N 43°34' E 010°18'0 0.0
2018-Jun-16 16:23N 43°34' E 010°18'0 0.0
2018-Jun-16 15:59N 43°34' E 010°18'0 0.0
2018-Jun-16 15:29N 43°34' E 010°18'0 0.0
2018-Jun-16 14:59N 43°34' E 010°18'0 0.0
2018-Jun-16 14:26N 43°34' E 010°18'0 0.0
2018-Jun-16 13:59N 43°34' E 010°18'0 0.0
2018-Jun-16 13:29N 43°34' E 010°18'0 0.0
2018-Jun-16 12:59N 43°34' E 010°18'0 0.0
2018-Jun-16 12:29N 43°34' E 010°18'0 0.0
2018-Jun-16 11:59N 43°34' E 010°18'0 0.0
2018-Jun-16 11:29N 43°34' E 010°18'0 0.0
2018-Jun-16 10:59N 43°34' E 010°18'0 0.0
2018-Jun-16 10:29N 43°34' E 010°18'0 0.0
2018-Jun-16 09:59N 43°34' E 010°18'0 0.0
2018-Jun-16 09:29N 43°34' E 010°18'0 0.0
2018-Jun-16 08:59N 43°34' E 010°18'0 0.0
2018-Jun-16 08:29N 43°34' E 010°18'0 0.0
2018-Jun-16 07:59N 43°34' E 010°18'0 0.0
2018-Jun-16 07:29N 43°34' E 010°18'0 0.0
2018-Jun-16 06:59N 43°34' E 010°18'0 0.0
2018-Jun-16 06:29N 43°34' E 010°18'0 0.0
2018-Jun-16 05:59N 43°34' E 010°18'0 0.0
2018-Jun-16 05:29N 43°34' E 010°18'0 0.0
2018-Jun-16 04:59N 43°34' E 010°18'0 0.0
2018-Jun-16 04:29N 43°34' E 010°18'0 0.0
2018-Jun-16 03:59N 43°34' E 010°18'0 0.0
2018-Jun-16 03:29N 43°34' E 010°18'0 0.0
2018-Jun-16 02:59N 43°34' E 010°18'0 0.0
2018-Jun-16 02:29N 43°34' E 010°18'0 0.0
2018-Jun-16 01:53N 43°34' E 010°18'0 0.0
2018-Jun-16 01:29N 43°34' E 010°18'0 0.0
2018-Jun-16 00:59N 43°34' E 010°18'0 0.0
2018-Jun-16 00:26N 43°34' E 010°18'0 0.0
2018-Jun-15 23:59N 43°34' E 010°18'0 0.0
2018-Jun-15 23:29N 43°34' E 010°18'0 0.0
2018-Jun-15 22:59N 43°34' E 010°18'0 0.0
2018-Jun-15 22:29N 43°34' E 010°18'0 0.0
2018-Jun-15 21:59N 43°34' E 010°18'0 0.0
2018-Jun-15 21:29N 43°34' E 010°18'0 0.0
2018-Jun-15 20:56N 43°34' E 010°18'0 0.0
2018-Jun-15 20:29N 43°34' E 010°18'0 0.0
2018-Jun-15 19:59N 43°34' E 010°18'0 0.0
2018-Jun-15 19:29N 43°34' E 010°18'0 0.0
2018-Jun-15 18:56N 43°34' E 010°18'0 0.0
2018-Jun-15 18:29N 43°34' E 010°18'0 0.0
2018-Jun-15 17:50N 43°34' E 010°18'0 0.0
2018-Jun-15 17:29N 43°34' E 010°18'0 0.0
2018-Jun-15 16:59N 43°34' E 010°18'0 0.0
2018-Jun-15 16:29N 43°34' E 010°18'0 0.0
2018-Jun-15 15:59N 43°34' E 010°18'0 0.0
2018-Jun-15 15:30N 43°34' E 010°18'1 1.5
2018-Jun-15 15:01N 43°33' E 010°17'3 6.1
2018-Jun-15 14:31N 43°30' E 010°16'1 1.2
2018-Jun-15 13:59N 43°29' E 010°16'0 0.0
2018-Jun-15 13:29N 43°29' E 010°16'0 0.0
2018-Jun-15 12:59N 43°29' E 010°16'0 0.0
2018-Jun-15 12:26N 43°29' E 010°16'0 0.0
2018-Jun-15 11:59N 43°29' E 010°16'0 0.0
2018-Jun-15 11:26N 43°29' E 010°16'0 0.0
2018-Jun-15 10:59N 43°29' E 010°16'0 0.0
2018-Jun-15 10:29N 43°29' E 010°16'0 0.2
2018-Jun-15 09:59N 43°29' E 010°16'0 0.1
2018-Jun-15 09:26N 43°29' E 010°16'0 0.0
2018-Jun-15 08:59N 43°29' E 010°16'0 0.0
2018-Jun-15 08:29N 43°29' E 010°16'0 0.0
2018-Jun-15 07:59N 43°29' E 010°16'0 0.0
2018-Jun-15 07:29N 43°29' E 010°16'0 0.1
2018-Jun-15 06:59N 43°29' E 010°16'0 0.2
2018-Jun-15 06:22N 43°29' E 010°16'0 0.1
2018-Jun-15 05:58N 43°30' E 010°16'0 0.0
2018-Jun-15 05:28N 43°30' E 010°16'0 0.0
2018-Jun-15 04:58N 43°30' E 010°16'0 0.0
2018-Jun-15 04:28N 43°30' E 010°16'0 0.1
2018-Jun-15 03:58N 43°29' E 010°16'0 0.2
2018-Jun-15 03:28N 43°29' E 010°16'0 0.1
2018-Jun-15 02:58N 43°29' E 010°16'0 0.0
2018-Jun-15 02:28N 43°29' E 010°16'0 0.1
2018-Jun-15 01:58N 43°29' E 010°16'0 0.0
2018-Jun-15 01:28N 43°29' E 010°16'0 0.0
2018-Jun-15 00:55N 43°29' E 010°16'0 0.0
2018-Jun-15 00:28N 43°29' E 010°16'0 0.0
2018-Jun-14 23:55N 43°29' E 010°16'0 0.1
2018-Jun-14 23:28N 43°29' E 010°16'0 0.1
2018-Jun-14 22:58N 43°29' E 010°16'0 0.0
2018-Jun-14 22:28N 43°29' E 010°16'0 0.0
2018-Jun-14 21:58N 43°29' E 010°16'0 0.0
2018-Jun-14 21:28N 43°29' E 010°16'0 0.0
2018-Jun-14 20:58N 43°29' E 010°16'0 0.0
2018-Jun-14 20:28N 43°29' E 010°16'0 0.0
2018-Jun-14 19:58N 43°29' E 010°16'0 0.0
2018-Jun-14 19:28N 43°29' E 010°16'0 0.0
2018-Jun-14 18:58N 43°29' E 010°16'0 0.0
2018-Jun-14 18:28N 43°29' E 010°16'0 0.0
2018-Jun-14 17:58N 43°29' E 010°16'0 0.0
2018-Jun-14 17:28N 43°29' E 010°16'0 0.0
2018-Jun-14 16:58N 43°29' E 010°16'0 0.0
2018-Jun-14 16:28N 43°29' E 010°16'0 0.0
2018-Jun-14 15:58N 43°29' E 010°16'0 0.0
2018-Jun-14 15:28N 43°29' E 010°16'0 0.1
2018-Jun-14 14:58N 43°29' E 010°16'0 0.0
2018-Jun-14 14:28N 43°29' E 010°16'0 0.0
2018-Jun-14 13:58N 43°29' E 010°16'0 0.0
2018-Jun-14 13:28N 43°29' E 010°16'0 0.0
2018-Jun-14 12:58N 43°29' E 010°16'0 0.0
2018-Jun-14 12:28N 43°29' E 010°16'0 0.0
2018-Jun-14 11:58N 43°29' E 010°16'0 0.1
2018-Jun-14 11:28N 43°29' E 010°16'0 0.2
2018-Jun-14 10:55N 43°29' E 010°16'0 0.1
2018-Jun-14 10:28N 43°29' E 010°16'0 0.2
2018-Jun-14 09:58N 43°29' E 010°16'0 0.0
2018-Jun-14 09:28N 43°29' E 010°16'0 0.1
2018-Jun-14 08:58N 43°29' E 010°16'0 0.1
2018-Jun-14 08:28N 43°29' E 010°16'0 0.0
2018-Jun-14 07:58N 43°29' E 010°16'0 0.0
2018-Jun-14 07:28N 43°29' E 010°16'0 0.0
2018-Jun-14 06:58N 43°29' E 010°16'0 0.1
2018-Jun-14 06:28N 43°29' E 010°16'1 1.4
2018-Jun-14 06:00N 43°29' E 010°16'5 9.6
2018-Jun-14 05:30N 43°25' E 010°13'611.6
2018-Jun-14 05:00N 43°19' E 010°10'611.6
2018-Jun-14 04:30N 43°14' E 010°08'612.3
2018-Jun-14 04:00N 43°08' E 010°06'713.1
2018-Jun-14 03:27N 43°01' E 010°03'35912.5
2018-Jun-12 22:46N 38°30' E 015°14'412.8
2018-Jun-12 22:26N 38°25' E 015°15'612.9
2018-Jun-12 22:00N 38°20' E 015°16'511.1
2018-Jun-12 21:30N 38°14' E 015°17'2 3.3
2018-Jun-12 20:57N 38°13' E 015°16'0 0.0
2018-Jun-12 20:27N 38°13' E 015°16'0 0.0
2018-Jun-12 19:57N 38°13' E 015°16'0 0.0
2018-Jun-12 19:27N 38°13' E 015°16'0 0.0
2018-Jun-12 18:57N 38°13' E 015°16'0 0.0
2018-Jun-12 18:27N 38°13' E 015°16'0 0.0
2018-Jun-12 17:51N 38°13' E 015°16'0 0.0
2018-Jun-12 17:27N 38°13' E 015°16'0 0.0
2018-Jun-12 16:57N 38°13' E 015°16'0 0.0
2018-Jun-12 16:27N 38°13' E 015°16'0 0.0
2018-Jun-12 15:57N 38°13' E 015°16'0 0.0
2018-Jun-12 15:26N 38°13' E 015°16'0 0.0
2018-Jun-12 14:56N 38°13' E 015°16'0 0.0
2018-Jun-12 14:26N 38°13' E 015°16'0 0.0
2018-Jun-12 13:56N 38°13' E 015°16'0 0.0
2018-Jun-12 13:26N 38°13' E 015°16'0 0.0
2018-Jun-12 12:56N 38°13' E 015°16'0 0.0
2018-Jun-12 12:26N 38°13' E 015°16'0 0.0
2018-Jun-12 11:56N 38°13' E 015°16'0 0.0
2018-Jun-12 11:26N 38°13' E 015°16'0 0.0
2018-Jun-12 10:56N 38°13' E 015°16'0 0.0
2018-Jun-12 10:26N 38°13' E 015°16'0 0.0
2018-Jun-12 09:56N 38°13' E 015°16'0 0.0
2018-Jun-12 09:26N 38°13' E 015°16'0 0.0
2018-Jun-12 08:56N 38°13' E 015°16'0 0.0
2018-Jun-12 08:26N 38°13' E 015°16'0 0.0
2018-Jun-12 07:56N 38°13' E 015°16'0 0.0
2018-Jun-12 07:26N 38°13' E 015°16'0 0.0
2018-Jun-12 06:56N 38°13' E 015°16'0 0.0
2018-Jun-12 06:26N 38°13' E 015°16'0 0.0
2018-Jun-12 05:56N 38°13' E 015°16'0 0.0
2018-Jun-12 05:30N 38°13' E 015°16'0 0.0
2018-Jun-12 05:00N 38°13' E 015°16'1 2.0
2018-Jun-12 04:30N 38°13' E 015°17'1 2.5
2018-Jun-12 03:59N 38°13' E 015°19'0 0.0
2018-Jun-12 03:29N 38°13' E 015°19'0 0.0
2018-Jun-12 02:59N 38°13' E 015°19'0 0.1
2018-Jun-12 02:29N 38°13' E 015°19'0 0.0
2018-Jun-12 01:59N 38°13' E 015°19'0 0.0
2018-Jun-12 01:29N 38°13' E 015°19'0 0.0
2018-Jun-12 00:59N 38°13' E 015°19'0 0.0
2018-Jun-12 00:29N 38°13' E 015°19'0 0.0
2018-Jun-11 23:59N 38°13' E 015°19'0 0.0
2018-Jun-11 23:29N 38°13' E 015°19'0 0.0
2018-Jun-11 22:59N 38°13' E 015°19'0 0.0
2018-Jun-11 22:29N 38°13' E 015°19'0 0.0
2018-Jun-11 21:59N 38°13' E 015°19'0 0.1
2018-Jun-11 21:29N 38°13' E 015°19'0 0.0
2018-Jun-11 20:59N 38°13' E 015°19'0 0.1
2018-Jun-11 20:29N 38°13' E 015°19'0 0.0
2018-Jun-11 19:59N 38°13' E 015°19'0 0.0
2018-Jun-11 19:29N 38°13' E 015°19'0 0.0
2018-Jun-11 18:59N 38°13' E 015°19'0 0.0
2018-Jun-11 18:29N 38°13' E 015°19'0 0.0
2018-Jun-11 17:59N 38°13' E 015°19'0 0.0
2018-Jun-11 17:29N 38°13' E 015°19'0 0.0
2018-Jun-11 16:59N 38°13' E 015°19'0 0.0
2018-Jun-11 16:29N 38°13' E 015°19'0 0.0
2018-Jun-11 15:59N 38°13' E 015°19'0 0.0
2018-Jun-11 15:29N 38°13' E 015°19'0 0.0
2018-Jun-11 14:59N 38°13' E 015°19'0 0.0
2018-Jun-11 14:29N 38°13' E 015°19'0 0.0
2018-Jun-11 13:59N 38°13' E 015°19'0 0.0
2018-Jun-11 13:29N 38°13' E 015°19'0 0.0
2018-Jun-11 12:59N 38°13' E 015°19'0 0.0
2018-Jun-11 12:29N 38°13' E 015°19'0 0.0
2018-Jun-11 11:59N 38°13' E 015°19'0 0.0
2018-Jun-11 11:29N 38°13' E 015°19'0 0.0
2018-Jun-11 10:59N 38°13' E 015°19'0 0.0
2018-Jun-11 10:29N 38°13' E 015°19'0 0.0
2018-Jun-11 09:59N 38°13' E 015°19'0 0.0
2018-Jun-11 09:17N 38°13' E 015°19'0 0.0
2018-Jun-11 08:59N 38°13' E 015°19'0 0.0
2018-Jun-11 08:29N 38°13' E 015°19'0 0.1
2018-Jun-11 07:59N 38°13' E 015°19'0 0.0
2018-Jun-11 07:29N 38°13' E 015°19'0 0.0
2018-Jun-11 06:59N 38°13' E 015°19'0 0.0
2018-Jun-11 06:29N 38°13' E 015°19'0 0.1
2018-Jun-11 05:59N 38°13' E 015°19'0 0.0
2018-Jun-11 05:29N 38°13' E 015°19'0 0.0
2018-Jun-11 04:59N 38°13' E 015°19'0 0.0
2018-Jun-11 04:29N 38°13' E 015°19'0 0.0
2018-Jun-11 03:59N 38°13' E 015°19'0 0.0
2018-Jun-11 03:29N 38°13' E 015°19'0 0.0
2018-Jun-11 02:59N 38°13' E 015°19'0 0.0
2018-Jun-11 02:29N 38°13' E 015°19'0 0.0
2018-Jun-11 01:59N 38°13' E 015°19'0 0.0
2018-Jun-11 01:29N 38°13' E 015°19'0 0.0
2018-Jun-11 00:58N 38°13' E 015°19'0 0.0
2018-Jun-11 00:28N 38°13' E 015°19'0 0.0
2018-Jun-10 23:58N 38°13' E 015°19'0 0.0
2018-Jun-10 23:28N 38°13' E 015°19'0 0.0
2018-Jun-10 23:00N 38°13' E 015°19'0 0.0
2018-Jun-10 22:30N 38°13' E 015°19'1 1.1
2018-Jun-10 21:59N 38°14' E 015°19'2 3.8
2018-Jun-10 21:31N 38°15' E 015°20'612.4
2018-Jun-10 21:00N 38°19' E 015°27'612.6
2018-Jun-10 20:30N 38°20' E 015°34'612.6
2018-Jun-10 20:00N 38°18' E 015°42'4 8.9
2018-Jun-10 19:30N 38°15' E 015°39'611.1
2018-Jun-10 18:59N 38°09' E 015°37'611.6
2018-Jun-10 18:31N 38°04' E 015°36'510.9
2018-Jun-10 18:01N 37°59' E 015°35'510.7
2018-Jun-10 17:30N 37°54' E 015°39'611.6
2018-Jun-10 17:00N 37°52' E 015°46'  
2018-Jun-07 20:40N 44°56' E 012°49'312.9
2018-Jun-07 20:28N 44°58' E 012°48'613.5
2018-Jun-07 20:00N 45°04' E 012°44'913.2
2018-Jun-07 19:19N 45°10' E 012°35'711.7
2018-Jun-07 18:45N 45°15' E 012°30'413.0
2018-Jun-07 18:28N 45°17' E 012°25'611.3
2018-Jun-07 17:57N 45°20' E 012°18'  
Track history (hours):
 
Tides and Currents Weather Stations Pressure Air Temp Water Temp Dewpoint Dewpoint Depression Visibility Wind Speed Wind Dir Waves Ship Positions

Alberta Amoretti

Last reported at 2018-Jun-17 17:43 UTC. Time now 2018-Jun-19 20:15 UTC.
Position N 42°48' E 008°38'.

Length 176 m; draft 8 m.

Type: Ship (hazmat cat A). MMSI: 247593000.

Date/timePositionNaut miles runAvg speedWind from/ knotsBaromVisibWave heightAir tempDewpointWater temp
2018-Jun-17 17:43N 42°48' E 008°38'210.1
2018-Jun-17 17:30N 42°50' E 008°40'510.1
2018-Jun-17 17:00N 42°53' E 008°45'510.2
2018-Jun-17 16:29N 42°57' E 008°50'7 9.9
2018-Jun-17 15:45N 43°02' E 008°58'3 9.4
2018-Jun-17 15:23N 43°04' E 009°01'4 9.5
2018-Jun-17 15:00N 43°06' E 009°05'6 9.5
2018-Jun-17 14:24N 43°10' E 009°11'4 9.7
2018-Jun-17 14:00N 43°12' E 009°15'5 9.8
2018-Jun-17 13:30N 43°14' E 009°21'510.0
2018-Jun-17 13:00N 43°15' E 009°28'510.0
2018-Jun-17 12:30N 43°16' E 009°35'510.1
2018-Jun-17 12:00N 43°16' E 009°42'510.1
2018-Jun-17 11:30N 43°17' E 009°49'5 9.8
2018-Jun-17 10:59N 43°18' E 009°55'4 9.4
2018-Jun-17 10:30N 43°20' E 010°01'510.1
2018-Jun-17 10:00N 43°24' E 010°05'510.3
2018-Jun-17 09:30N 43°28' E 010°10'4 7.4
2018-Jun-17 09:00N 43°31' E 010°13'4 7.6
2018-Jun-17 08:30N 43°33' E 010°18'1 1.0
2018-Jun-17 08:00N 43°34' E 010°18'0 0.0
2018-Jun-17 07:30N 43°34' E 010°18'0 0.0
2018-Jun-17 07:00N 43°34' E 010°18'0 0.0
2018-Jun-17 06:30N 43°34' E 010°18'0 0.0
2018-Jun-17 06:00N 43°34' E 010°18'0 0.0
2018-Jun-17 05:30N 43°34' E 010°18'0 0.0
2018-Jun-17 05:00N 43°34' E 010°18'0 0.0
2018-Jun-17 04:30N 43°34' E 010°18'0 0.0
2018-Jun-17 04:00N 43°34' E 010°18'0 0.0
2018-Jun-17 03:27N 43°34' E 010°18'0 0.0
2018-Jun-17 03:00N 43°34' E 010°18'0 0.0
2018-Jun-17 02:30N 43°34' E 010°18'0 0.0
2018-Jun-17 02:00N 43°34' E 010°18'0 0.0
2018-Jun-17 01:30N 43°34' E 010°18'0 0.0
2018-Jun-17 01:00N 43°34' E 010°18'0 0.0
2018-Jun-17 00:27N 43°34' E 010°18'0 0.0
2018-Jun-16 23:59N 43°34' E 010°18'0 0.0
2018-Jun-16 23:29N 43°34' E 010°18'0 0.0
2018-Jun-16 22:59N 43°34' E 010°18'0 0.0
2018-Jun-16 22:29N 43°34' E 010°18'0 0.0
2018-Jun-16 21:59N 43°34' E 010°18'0 0.0
2018-Jun-16 21:29N 43°34' E 010°18'0 0.0
2018-Jun-16 20:59N 43°34' E 010°18'0 0.0
2018-Jun-16 20:29N 43°34' E 010°18'0 0.0
2018-Jun-16 19:59N 43°34' E 010°18'0 0.0
2018-Jun-16 19:29N 43°34' E 010°18'0 0.0
2018-Jun-16 18:59N 43°34' E 010°18'0 0.0
2018-Jun-16 18:26N 43°34' E 010°18'0 0.0
2018-Jun-16 17:59N 43°34' E 010°18'0 0.0
2018-Jun-16 17:29N 43°34' E 010°18'0 0.0
2018-Jun-16 16:59N 43°34' E 010°18'0 0.0
2018-Jun-16 16:23N 43°34' E 010°18'0 0.0
2018-Jun-16 15:59N 43°34' E 010°18'0 0.0
2018-Jun-16 15:29N 43°34' E 010°18'0 0.0
2018-Jun-16 14:59N 43°34' E 010°18'0 0.0
2018-Jun-16 14:26N 43°34' E 010°18'0 0.0
2018-Jun-16 13:59N 43°34' E 010°18'0 0.0
2018-Jun-16 13:29N 43°34' E 010°18'0 0.0
2018-Jun-16 12:59N 43°34' E 010°18'0 0.0
2018-Jun-16 12:29N 43°34' E 010°18'0 0.0
2018-Jun-16 11:59N 43°34' E 010°18'0 0.0
2018-Jun-16 11:29N 43°34' E 010°18'0 0.0
2018-Jun-16 10:59N 43°34' E 010°18'0 0.0
2018-Jun-16 10:29N 43°34' E 010°18'0 0.0
2018-Jun-16 09:59N 43°34' E 010°18'0 0.0
2018-Jun-16 09:29N 43°34' E 010°18'0 0.0
2018-Jun-16 08:59N 43°34' E 010°18'0 0.0
2018-Jun-16 08:29N 43°34' E 010°18'0 0.0
2018-Jun-16 07:59N 43°34' E 010°18'0 0.0
2018-Jun-16 07:29N 43°34' E 010°18'0 0.0
2018-Jun-16 06:59N 43°34' E 010°18'0 0.0
2018-Jun-16 06:29N 43°34' E 010°18'0 0.0
2018-Jun-16 05:59N 43°34' E 010°18'0 0.0
2018-Jun-16 05:29N 43°34' E 010°18'0 0.0
2018-Jun-16 04:59N 43°34' E 010°18'0 0.0
2018-Jun-16 04:29N 43°34' E 010°18'0 0.0
2018-Jun-16 03:59N 43°34' E 010°18'0 0.0
2018-Jun-16 03:29N 43°34' E 010°18'0 0.0
2018-Jun-16 02:59N 43°34' E 010°18'0 0.0
2018-Jun-16 02:29N 43°34' E 010°18'0 0.0
2018-Jun-16 01:53N 43°34' E 010°18'0 0.0
2018-Jun-16 01:29N 43°34' E 010°18'0 0.0
2018-Jun-16 00:59N 43°34' E 010°18'0 0.0
2018-Jun-16 00:26N 43°34' E 010°18'0 0.0
2018-Jun-15 23:59N 43°34' E 010°18'0 0.0
2018-Jun-15 23:29N 43°34' E 010°18'0 0.0
2018-Jun-15 22:59N 43°34' E 010°18'0 0.0
2018-Jun-15 22:29N 43°34' E 010°18'0 0.0
2018-Jun-15 21:59N 43°34' E 010°18'0 0.0
2018-Jun-15 21:29N 43°34' E 010°18'0 0.0
2018-Jun-15 20:56N 43°34' E 010°18'0 0.0
2018-Jun-15 20:29N 43°34' E 010°18'0 0.0
2018-Jun-15 19:59N 43°34' E 010°18'0 0.0
2018-Jun-15 19:29N 43°34' E 010°18'0 0.0
2018-Jun-15 18:56N 43°34' E 010°18'0 0.0
2018-Jun-15 18:29N 43°34' E 010°18'0 0.0
2018-Jun-15 17:50N 43°34' E 010°18'0 0.0
2018-Jun-15 17:29N 43°34' E 010°18'0 0.0
2018-Jun-15 16:59N 43°34' E 010°18'0 0.0
2018-Jun-15 16:29N 43°34' E 010°18'0 0.0
2018-Jun-15 15:59N 43°34' E 010°18'0 0.0
2018-Jun-15 15:30N 43°34' E 010°18'1 1.5
2018-Jun-15 15:01N 43°33' E 010°17'3 6.1
2018-Jun-15 14:31N 43°30' E 010°16'1 1.2
2018-Jun-15 13:59N 43°29' E 010°16'0 0.0
2018-Jun-15 13:29N 43°29' E 010°16'0 0.0
2018-Jun-15 12:59N 43°29' E 010°16'0 0.0
2018-Jun-15 12:26N 43°29' E 010°16'0 0.0
2018-Jun-15 11:59N 43°29' E 010°16'0 0.0
2018-Jun-15 11:26N 43°29' E 010°16'0 0.0
2018-Jun-15 10:59N 43°29' E 010°16'0 0.0
2018-Jun-15 10:29N 43°29' E 010°16'0 0.2
2018-Jun-15 09:59N 43°29' E 010°16'0 0.1
2018-Jun-15 09:26N 43°29' E 010°16'0 0.0
2018-Jun-15 08:59N 43°29' E 010°16'0 0.0
2018-Jun-15 08:29N 43°29' E 010°16'0 0.0
2018-Jun-15 07:59N 43°29' E 010°16'0 0.0
2018-Jun-15 07:29N 43°29' E 010°16'0 0.1
2018-Jun-15 06:59N 43°29' E 010°16'0 0.2
2018-Jun-15 06:22N 43°29' E 010°16'0 0.1
2018-Jun-15 05:58N 43°30' E 010°16'0 0.0
2018-Jun-15 05:28N 43°30' E 010°16'0 0.0
2018-Jun-15 04:58N 43°30' E 010°16'0 0.0
2018-Jun-15 04:28N 43°30' E 010°16'0 0.1
2018-Jun-15 03:58N 43°29' E 010°16'0 0.2
2018-Jun-15 03:28N 43°29' E 010°16'0 0.1
2018-Jun-15 02:58N 43°29' E 010°16'0 0.0
2018-Jun-15 02:28N 43°29' E 010°16'0 0.1
2018-Jun-15 01:58N 43°29' E 010°16'0 0.0
2018-Jun-15 01:28N 43°29' E 010°16'0 0.0
2018-Jun-15 00:55N 43°29' E 010°16'0 0.0
2018-Jun-15 00:28N 43°29' E 010°16'0 0.0
2018-Jun-14 23:55N 43°29' E 010°16'0 0.1
2018-Jun-14 23:28N 43°29' E 010°16'0 0.1
2018-Jun-14 22:58N 43°29' E 010°16'0 0.0
2018-Jun-14 22:28N 43°29' E 010°16'0 0.0
2018-Jun-14 21:58N 43°29' E 010°16'0 0.0
2018-Jun-14 21:28N 43°29' E 010°16'0 0.0
2018-Jun-14 20:58N 43°29' E 010°16'0 0.0
2018-Jun-14 20:28N 43°29' E 010°16'0 0.0
2018-Jun-14 19:58N 43°29' E 010°16'0 0.0
2018-Jun-14 19:28N 43°29' E 010°16'0 0.0
2018-Jun-14 18:58N 43°29' E 010°16'0 0.0
2018-Jun-14 18:28N 43°29' E 010°16'0 0.0
2018-Jun-14 17:58N 43°29' E 010°16'0 0.0
2018-Jun-14 17:28N 43°29' E 010°16'0 0.0
2018-Jun-14 16:58N 43°29' E 010°16'0 0.0
2018-Jun-14 16:28N 43°29' E 010°16'0 0.0
2018-Jun-14 15:58N 43°29' E 010°16'0 0.0
2018-Jun-14 15:28N 43°29' E 010°16'0 0.1
2018-Jun-14 14:58N 43°29' E 010°16'0 0.0
2018-Jun-14 14:28N 43°29' E 010°16'0 0.0
2018-Jun-14 13:58N 43°29' E 010°16'0 0.0
2018-Jun-14 13:28N 43°29' E 010°16'0 0.0
2018-Jun-14 12:58N 43°29' E 010°16'0 0.0
2018-Jun-14 12:28N 43°29' E 010°16'0 0.0
2018-Jun-14 11:58N 43°29' E 010°16'0 0.1
2018-Jun-14 11:28N 43°29' E 010°16'0 0.2
2018-Jun-14 10:55N 43°29' E 010°16'0 0.1
2018-Jun-14 10:28N 43°29' E 010°16'0 0.2
2018-Jun-14 09:58N 43°29' E 010°16'0 0.0
2018-Jun-14 09:28N 43°29' E 010°16'0 0.1
2018-Jun-14 08:58N 43°29' E 010°16'0 0.1
2018-Jun-14 08:28N 43°29' E 010°16'0 0.0
2018-Jun-14 07:58N 43°29' E 010°16'0 0.0
2018-Jun-14 07:28N 43°29' E 010°16'0 0.0
2018-Jun-14 06:58N 43°29' E 010°16'0 0.1
2018-Jun-14 06:28N 43°29' E 010°16'1 1.4
2018-Jun-14 06:00N 43°29' E 010°16'5 9.6
2018-Jun-14 05:30N 43°25' E 010°13'611.6
2018-Jun-14 05:00N 43°19' E 010°10'611.6
2018-Jun-14 04:30N 43°14' E 010°08'612.3
2018-Jun-14 04:00N 43°08' E 010°06'713.1
2018-Jun-14 03:27N 43°01' E 010°03'35912.5
2018-Jun-12 22:46N 38°30' E 015°14'412.8
2018-Jun-12 22:26N 38°25' E 015°15'612.9
2018-Jun-12 22:00N 38°20' E 015°16'511.1
2018-Jun-12 21:30N 38°14' E 015°17'2 3.3
2018-Jun-12 20:57N 38°13' E 015°16'0 0.0
2018-Jun-12 20:27N 38°13' E 015°16'0 0.0
2018-Jun-12 19:57N 38°13' E 015°16'0 0.0
2018-Jun-12 19:27N 38°13' E 015°16'0 0.0
2018-Jun-12 18:57N 38°13' E 015°16'0 0.0
2018-Jun-12 18:27N 38°13' E 015°16'0 0.0
2018-Jun-12 17:51N 38°13' E 015°16'0 0.0
2018-Jun-12 17:27N 38°13' E 015°16'0 0.0
2018-Jun-12 16:57N 38°13' E 015°16'0 0.0
2018-Jun-12 16:27N 38°13' E 015°16'0 0.0
2018-Jun-12 15:57N 38°13' E 015°16'0 0.0
2018-Jun-12 15:26N 38°13' E 015°16'0 0.0
2018-Jun-12 14:56N 38°13' E 015°16'0 0.0
2018-Jun-12 14:26N 38°13' E 015°16'0 0.0
2018-Jun-12 13:56N 38°13' E 015°16'0 0.0
2018-Jun-12 13:26N 38°13' E 015°16'0 0.0
2018-Jun-12 12:56N 38°13' E 015°16'0 0.0
2018-Jun-12 12:26N 38°13' E 015°16'0 0.0
2018-Jun-12 11:56N 38°13' E 015°16'0 0.0
2018-Jun-12 11:26N 38°13' E 015°16'0 0.0
2018-Jun-12 10:56N 38°13' E 015°16'0 0.0
2018-Jun-12 10:26N 38°13' E 015°16'0 0.0
2018-Jun-12 09:56N 38°13' E 015°16'0 0.0
2018-Jun-12 09:26N 38°13' E 015°16'0 0.0
2018-Jun-12 08:56N 38°13' E 015°16'0 0.0
2018-Jun-12 08:26N 38°13' E 015°16'0 0.0
2018-Jun-12 07:56N 38°13' E 015°16'0 0.0
2018-Jun-12 07:26N 38°13' E 015°16'0 0.0
2018-Jun-12 06:56N 38°13' E 015°16'0 0.0
2018-Jun-12 06:26N 38°13' E 015°16'0 0.0
2018-Jun-12 05:56N 38°13' E 015°16'0 0.0
2018-Jun-12 05:30N 38°13' E 015°16'0 0.0
2018-Jun-12 05:00N 38°13' E 015°16'1 2.0
2018-Jun-12 04:30N 38°13' E 015°17'1 2.5
2018-Jun-12 03:59N 38°13' E 015°19'0 0.0
2018-Jun-12 03:29N 38°13' E 015°19'0 0.0
2018-Jun-12 02:59N 38°13' E 015°19'0 0.1
2018-Jun-12 02:29N 38°13' E 015°19'0 0.0
2018-Jun-12 01:59N 38°13' E 015°19'0 0.0
2018-Jun-12 01:29N 38°13' E 015°19'0 0.0
2018-Jun-12 00:59N 38°13' E 015°19'0 0.0
2018-Jun-12 00:29N 38°13' E 015°19'0 0.0
2018-Jun-11 23:59N 38°13' E 015°19'0 0.0
2018-Jun-11 23:29N 38°13' E 015°19'0 0.0
2018-Jun-11 22:59N 38°13' E 015°19'0 0.0
2018-Jun-11 22:29N 38°13' E 015°19'0 0.0
2018-Jun-11 21:59N 38°13' E 015°19'0 0.1
2018-Jun-11 21:29N 38°13' E 015°19'0 0.0
2018-Jun-11 20:59N 38°13' E 015°19'0 0.1
2018-Jun-11 20:29N 38°13' E 015°19'0 0.0
2018-Jun-11 19:59N 38°13' E 015°19'0 0.0
2018-Jun-11 19:29N 38°13' E 015°19'0 0.0
2018-Jun-11 18:59N 38°13' E 015°19'0 0.0
2018-Jun-11 18:29N 38°13' E 015°19'0 0.0
2018-Jun-11 17:59N 38°13' E 015°19'0 0.0
2018-Jun-11 17:29N 38°13' E 015°19'0 0.0
2018-Jun-11 16:59N 38°13' E 015°19'0 0.0
2018-Jun-11 16:29N 38°13' E 015°19'0 0.0
2018-Jun-11 15:59N 38°13' E 015°19'0 0.0
2018-Jun-11 15:29N 38°13' E 015°19'0 0.0
2018-Jun-11 14:59N 38°13' E 015°19'0 0.0
2018-Jun-11 14:29N 38°13' E 015°19'0 0.0
2018-Jun-11 13:59N 38°13' E 015°19'0 0.0
2018-Jun-11 13:29N 38°13' E 015°19'0 0.0
2018-Jun-11 12:59N 38°13' E 015°19'0 0.0
2018-Jun-11 12:29N 38°13' E 015°19'0 0.0
2018-Jun-11 11:59N 38°13' E 015°19'0 0.0
2018-Jun-11 11:29N 38°13' E 015°19'0 0.0
2018-Jun-11 10:59N 38°13' E 015°19'0 0.0
2018-Jun-11 10:29N 38°13' E 015°19'0 0.0
2018-Jun-11 09:59N 38°13' E 015°19'0 0.0
2018-Jun-11 09:17N 38°13' E 015°19'0 0.0
2018-Jun-11 08:59N 38°13' E 015°19'0 0.0
2018-Jun-11 08:29N 38°13' E 015°19'0 0.1
2018-Jun-11 07:59N 38°13' E 015°19'0 0.0
2018-Jun-11 07:29N 38°13' E 015°19'0 0.0
2018-Jun-11 06:59N 38°13' E 015°19'0 0.0
2018-Jun-11 06:29N 38°13' E 015°19'0 0.1
2018-Jun-11 05:59N 38°13' E 015°19'0 0.0
2018-Jun-11 05:29N 38°13' E 015°19'0 0.0
2018-Jun-11 04:59N 38°13' E 015°19'0 0.0
2018-Jun-11 04:29N 38°13' E 015°19'0 0.0
2018-Jun-11 03:59N 38°13' E 015°19'0 0.0
2018-Jun-11 03:29N 38°13' E 015°19'0 0.0
2018-Jun-11 02:59N 38°13' E 015°19'0 0.0
2018-Jun-11 02:29N 38°13' E 015°19'0 0.0
2018-Jun-11 01:59N 38°13' E 015°19'0 0.0
2018-Jun-11 01:29N 38°13' E 015°19'0 0.0
2018-Jun-11 00:58N 38°13' E 015°19'0 0.0
2018-Jun-11 00:28N 38°13' E 015°19'0 0.0
2018-Jun-10 23:58N 38°13' E 015°19'0 0.0
2018-Jun-10 23:28N 38°13' E 015°19'0 0.0
2018-Jun-10 23:00N 38°13' E 015°19'0 0.0
2018-Jun-10 22:30N 38°13' E 015°19'1 1.1
2018-Jun-10 21:59N 38°14' E 015°19'2 3.8
2018-Jun-10 21:31N 38°15' E 015°20'612.4
2018-Jun-10 21:00N 38°19' E 015°27'612.6
2018-Jun-10 20:30N 38°20' E 015°34'612.6
2018-Jun-10 20:00N 38°18' E 015°42'4 8.9
2018-Jun-10 19:30N 38°15' E 015°39'611.1
2018-Jun-10 18:59N 38°09' E 015°37'611.6
2018-Jun-10 18:31N 38°04' E 015°36'510.9
2018-Jun-10 18:01N 37°59' E 015°35'510.7
2018-Jun-10 17:30N 37°54' E 015°39'611.6
2018-Jun-10 17:00N 37°52' E 015°46'  
2018-Jun-07 20:40N 44°56' E 012°49'312.9
2018-Jun-07 20:28N 44°58' E 012°48'613.5
2018-Jun-07 20:00N 45°04' E 012°44'913.2
2018-Jun-07 19:19N 45°10' E 012°35'711.7
2018-Jun-07 18:45N 45°15' E 012°30'413.0
2018-Jun-07 18:28N 45°17' E 012°25'611.3
2018-Jun-07 17:57N 45°20' E 012°18'  

Dump ship's entire track history